首页
METAR-TAF:

METAR-TAF

机场 :

安娜堡, 密歇根州, 美国

纬度: 42-13-26N, 经度: 083-44-24W, 海拔: 255米

当前天气观测

该预报发布于56分钟前的07:53 UTC
静风
温度 -6°C
湿度 93%
气压 1020 hPa
能見度: 14.5公里
天空无云

METAR: KARB 130753Z AUTO 00000KT 9SM CLR M06/M07 A3011 RMK AO2 SLP208 T10561067

时间: 03:49 (08:49 UTC)


TAF: 丢失

超过4000个机场的气象观测和天气预报(METAR&TAF报告)。

可查询的气象台以黄色和红色小点在地图上表示。

将鼠标移到小点上方,可查看气象台名称。

然后点击查看天气观测和预报。

如需切换地图:点击带黑十字的绿色按钮放大地图;点击带横线的绿色按钮缩小地图;或者点击绿色箭头查看邻近地区的地图。


METAR-TAF: